Time;durP1;ratioP1;P1;durP2;ratioP2;P2;SDS_P1;SDS_P2;PMS_P1;PMS_P2;Temp;Humidity;BMP_temperature;BMP_pressure;BME280_temperature;BME280_humidity;BME280_pressure;Samples;Min_cycle;Max_cycle;Signal;HPM_P1;HPM_P2
2024/03/07 00:02:08;;;;;;;31.27;13.70;;;3.00;99.90;;;;;;5030093;28;20267;-56
2024/03/07 00:04:36;;;;;;;28.17;12.47;;;3.10;99.90;;;;;;5029914;28;20291;-57
2024/03/07 00:07:03;;;;;;;30.03;11.77;;;3.10;99.90;;;;;;5029970;28;20557;-56
2024/03/07 00:09:31;;;;;;;32.93;13.33;;;3.10;99.90;;;;;;5029432;28;20286;-57
2024/03/07 00:11:57;;;;;;;34.03;12.90;;;3.10;99.90;;;;;;5044687;28;20179;-54
2024/03/07 00:14:26;;;;;;;33.50;13.07;;;3.10;99.90;;;;;;5039530;28;20211;-58
2024/03/07 00:16:56;;;;;;;32.47;13.23;;;3.00;99.90;;;;;;5029599;28;20721;-58
2024/03/07 00:19:24;;;;;;;33.30;13.77;;;2.90;99.90;;;;;;5038867;28;20215;-53
2024/03/07 00:21:50;;;;;;;35.03;13.73;;;2.90;99.90;;;;;;5041353;28;20175;-57
2024/03/07 00:24:16;;;;;;;29.50;13.43;;;2.90;99.90;;;;;;5033038;28;20207;-55
2024/03/07 00:26:41;;;;;;;31.10;13.60;;;2.80;99.90;;;;;;5037003;28;20256;-52
2024/03/07 00:29:07;;;;;;;32.30;12.93;;;2.80;99.90;;;;;;5037413;28;20182;-55
2024/03/07 00:31:33;;;;;;;32.97;13.87;;;2.90;99.90;;;;;;5029636;28;20290;-57
2024/03/07 00:33:59;;;;;;;34.27;13.63;;;2.80;99.90;;;;;;5044586;28;20203;-56
2024/03/07 00:36:25;;;;;;;37.03;14.53;;;2.80;99.90;;;;;;5030667;28;20187;-56
2024/03/07 00:38:54;;;;;;;43.70;14.43;;;2.60;99.90;;;;;;5029210;28;20204;-57
2024/03/07 00:41:20;;;;;;;37.10;14.83;;;2.60;99.90;;;;;;5030929;28;20190;-53
2024/03/07 00:43:46;;;;;;;36.33;14.17;;;2.70;99.90;;;;;;5049544;28;20305;-53
2024/03/07 00:46:12;;;;;;;32.63;13.77;;;2.70;99.90;;;;;;5041171;28;20698;-56
2024/03/07 00:48:37;;;;;;;36.27;14.10;;;2.90;99.90;;;;;;5045348;28;20187;-56
2024/03/07 00:51:06;;;;;;;37.90;14.33;;;3.00;99.90;;;;;;5037937;28;20187;-54
2024/03/07 00:53:32;;;;;;;36.47;14.83;;;3.10;99.90;;;;;;5029456;28;20283;-55
2024/03/07 00:55:57;;;;;;;34.73;14.43;;;3.10;99.90;;;;;;5029634;28;20211;-52
2024/03/07 00:58:23;;;;;;;36.47;15.17;;;3.10;99.90;;;;;;5028638;28;20208;-53
2024/03/07 01:00:49;;;;;;;33.47;13.70;;;3.10;99.90;;;;;;5029502;28;20172;-53
2024/03/07 01:03:15;;;;;;;36.27;14.30;;;3.20;99.90;;;;;;5038171;28;20203;-56
2024/03/07 01:05:40;;;;;;;39.23;13.67;;;3.20;99.90;;;;;;5049319;28;20203;-52
2024/03/07 01:08:06;;;;;;;33.47;13.60;;;3.20;99.90;;;;;;5040289;28;20195;-54
2024/03/07 01:10:31;;;;;;;39.03;14.67;;;3.30;99.90;;;;;;5038134;28;20184;-54
2024/03/07 01:13:01;;;;;;;36.03;14.10;;;3.40;99.90;;;;;;5029416;28;20200;-54
2024/03/07 01:15:27;;;;;;;34.77;13.20;;;3.40;99.90;;;;;;5029193;28;20214;-54
2024/03/07 01:17:52;;;;;;;33.10;13.93;;;3.40;99.90;;;;;;5036987;28;20188;-56
2024/03/07 01:20:21;;;;;;;34.90;13.63;;;3.40;99.90;;;;;;5029061;28;20574;-54
2024/03/07 01:22:46;;;;;;;40.83;13.90;;;3.40;99.90;;;;;;5042347;28;20175;-55
2024/03/07 01:25:12;;;;;;;32.43;13.60;;;3.40;99.90;;;;;;5032536;28;20198;-53
2024/03/07 01:27:38;;;;;;;33.17;14.07;;;3.40;99.90;;;;;;5032685;28;20270;-56
2024/03/07 01:30:07;;;;;;;33.37;14.33;;;3.50;99.90;;;;;;5015794;28;20267;-56
2024/03/07 01:32:33;;;;;;;32.67;13.23;;;3.40;99.90;;;;;;5038240;28;20199;-56
2024/03/07 01:34:59;;;;;;;26.83;11.87;;;3.40;99.90;;;;;;5038905;28;20663;-53
2024/03/07 01:37:24;;;;;;;28.70;12.57;;;3.40;99.90;;;;;;5033412;28;20249;-52
2024/03/07 01:39:50;;;;;;;33.63;13.33;;;3.50;99.90;;;;;;5031465;28;20713;-53
2024/03/07 01:42:15;;;;;;;31.80;12.53;;;3.60;99.90;;;;;;5041507;28;20570;-55
2024/03/07 01:44:41;;;;;;;35.33;14.30;;;3.50;99.90;;;;;;5052547;28;20219;-54
2024/03/07 01:47:07;;;;;;;36.13;16.33;;;3.30;99.90;;;;;;5044699;28;20255;-54
2024/03/07 01:49:33;;;;;;;39.27;16.20;;;3.30;99.90;;;;;;5039741;28;20195;-52
2024/03/07 01:52:01;;;;;;;38.40;16.20;;;3.30;99.90;;;;;;5041051;28;20294;-55
2024/03/07 01:54:27;;;;;;;44.80;16.33;;;3.20;99.90;;;;;;5034354;28;20211;-57
2024/03/07 01:56:54;;;;;;;35.43;15.43;;;3.30;99.90;;;;;;5046543;28;20725;-52
2024/03/07 01:59:20;;;;;;;40.17;16.37;;;3.30;99.90;;;;;;5040061;28;20212;-55
2024/03/07 02:01:46;;;;;;;36.83;15.40;;;3.30;99.90;;;;;;5040661;28;20183;-58
2024/03/07 02:04:12;;;;;;;36.43;15.17;;;3.30;99.90;;;;;;5040757;28;20624;-55
2024/03/07 02:06:38;;;;;;;34.40;14.70;;;3.30;99.90;;;;;;5032005;28;20721;-56
2024/03/07 02:09:05;;;;;;;32.80;13.83;;;3.40;99.90;;;;;;5031652;28;20176;-56
2024/03/07 02:11:31;;;;;;;34.77;14.40;;;3.40;99.90;;;;;;5034917;28;20191;-53
2024/03/07 02:13:57;;;;;;;33.70;13.97;;;3.40;99.90;;;;;;5045784;28;20211;-55
2024/03/07 02:16:23;;;;;;;33.00;14.97;;;3.50;99.90;;;;;;5039948;28;20225;-56
2024/03/07 02:18:49;;;;;;;35.60;14.33;;;3.50;99.90;;;;;;5031555;28;20235;-53
2024/03/07 02:21:15;;;;;;;36.23;14.23;;;3.50;99.90;;;;;;5032127;28;20190;-53
2024/03/07 02:23:41;;;;;;;35.83;14.85;;;3.50;99.90;;;;;;5031668;28;20414;-56
2024/03/07 02:26:08;;;;;;;36.00;15.43;;;3.40;99.90;;;;;;5032021;28;20206;-53
2024/03/07 02:28:34;;;;;;;37.53;15.27;;;3.40;99.90;;;;;;5031276;28;20576;-55
2024/03/07 02:31:00;;;;;;;33.57;15.50;;;3.40;99.90;;;;;;5031748;28;20199;-52
2024/03/07 02:33:26;;;;;;;36.07;13.57;;;3.40;99.90;;;;;;5048320;28;20206;-54
2024/03/07 02:35:52;;;;;;;33.33;14.60;;;3.50;99.90;;;;;;5039910;28;20651;-55
2024/03/07 02:38:17;;;;;;;32.97;14.17;;;3.60;99.90;;;;;;5038882;28;20571;-55
2024/03/07 02:40:43;;;;;;;32.90;13.50;;;3.70;99.90;;;;;;5039943;28;20172;-53
2024/03/07 02:43:09;;;;;;;32.90;13.97;;;3.80;99.90;;;;;;5031387;28;20254;-55
2024/03/07 02:45:34;;;;;;;30.07;13.77;;;3.80;99.90;;;;;;5042242;28;20244;-55
2024/03/07 02:48:00;;;;;;;30.77;13.83;;;3.80;99.90;;;;;;5044277;28;20187;-53
2024/03/07 02:50:25;;;;;;;34.33;14.10;;;3.90;99.90;;;;;;5039724;28;20612;-55
2024/03/07 02:52:52;;;;;;;41.07;15.23;;;3.90;99.90;;;;;;5031498;28;20184;-56
2024/03/07 02:55:18;;;;;;;33.07;13.77;;;3.90;99.90;;;;;;5048629;28;20243;-52
2024/03/07 02:57:45;;;;;;;32.23;13.63;;;3.90;99.90;;;;;;5037807;28;20211;-54
2024/03/07 03:00:26;;;;;;;36.63;13.73;;;4.00;99.90;;;;;;5039363;28;20621;-52
2024/03/07 03:02:52;;;;;;;33.13;14.73;;;4.00;99.90;;;;;;5036662;28;20236;-52
2024/03/07 03:05:18;;;;;;;30.37;13.10;;;4.00;99.90;;;;;;5034461;28;20192;-55
2024/03/07 03:07:52;;;;;;;37.47;13.83;;;4.00;99.90;;;;;;5042172;28;20187;-54
2024/03/07 03:10:25;;;;;;;33.10;13.77;;;4.00;99.90;;;;;;5041914;28;20200;-55
2024/03/07 03:12:53;;;;;;;31.63;13.27;;;4.10;99.90;;;;;;5044520;28;20667;-53
2024/03/07 03:15:20;;;;;;;32.87;14.43;;;4.10;99.90;;;;;;5033289;28;20695;-54
2024/03/07 03:17:50;;;;;;;39.33;14.33;;;4.10;99.90;;;;;;5030520;28;20191;-54
2024/03/07 03:20:24;;;;;;;36.57;14.13;;;4.10;99.90;;;;;;5038960;28;20790;-54
2024/03/07 03:22:53;;;;;;;40.97;13.73;;;4.10;99.90;;;;;;5030736;28;20233;-53
2024/03/07 03:25:20;;;;;;;40.63;15.43;;;4.00;99.90;;;;;;5031711;28;20560;-52
2024/03/07 03:27:49;;;;;;;32.93;15.20;;;3.90;99.90;;;;;;5041768;28;20724;-55
2024/03/07 03:30:18;;;;;;;38.27;15.57;;;3.90;99.90;;;;;;5041967;28;20648;-52
2024/03/07 03:32:49;;;;;;;37.10;15.37;;;3.90;99.90;;;;;;5038901;28;20194;-56
2024/03/07 03:35:15;;;;;;;37.73;15.03;;;3.90;99.90;;;;;;5038533;28;20191;-53
2024/03/07 03:37:42;;;;;;;36.03;14.50;;;3.80;99.90;;;;;;5029444;28;20179;-55
2024/03/07 03:40:09;;;;;;;32.07;14.57;;;3.80;99.90;;;;;;5030073;28;20210;-53
2024/03/07 03:42:36;;;;;;;39.60;15.37;;;3.80;99.90;;;;;;5037900;28;20762;-52
2024/03/07 03:45:06;;;;;;;35.13;13.87;;;3.80;99.90;;;;;;5036809;28;20248;-56
2024/03/07 03:47:35;;;;;;;35.57;15.40;;;3.80;99.90;;;;;;5032722;28;20188;-53
2024/03/07 03:50:05;;;;;;;33.37;14.37;;;3.90;99.90;;;;;;5043286;28;20215;-52
2024/03/07 03:52:31;;;;;;;33.87;14.17;;;3.90;99.90;;;;;;5030107;28;20188;-55
2024/03/07 03:55:00;;;;;;;33.70;14.80;;;3.90;99.90;;;;;;5029627;28;20667;-56
2024/03/07 03:57:27;;;;;;;32.27;14.40;;;3.80;99.90;;;;;;5029165;28;20183;-53
2024/03/07 03:59:53;;;;;;;31.57;13.80;;;3.80;99.90;;;;;;5035694;28;20214;-56
2024/03/07 04:02:19;;;;;;;36.53;15.03;;;3.80;99.90;;;;;;5041405;28;20279;-54
2024/03/07 04:04:45;;;;;;;31.73;13.30;;;3.90;99.90;;;;;;5049494;28;20671;-53
2024/03/07 04:07:12;;;;;;;29.93;13.20;;;3.90;99.90;;;;;;5049652;28;20190;-57
2024/03/07 04:09:38;;;;;;;33.77;13.27;;;3.90;99.90;;;;;;5041046;28;20193;-54
2024/03/07 04:12:05;;;;;;;31.13;13.57;;;4.00;99.90;;;;;;5034574;28;20681;-53
2024/03/07 04:14:32;;;;;;;33.10;13.63;;;4.00;99.90;;;;;;5029375;28;20218;-56
2024/03/07 04:16:58;;;;;;;39.27;14.97;;;4.00;99.90;;;;;;5037956;28;20192;-53
2024/03/07 04:19:25;;;;;;;36.43;14.30;;;4.00;99.90;;;;;;5030379;28;20215;-55
2024/03/07 04:21:51;;;;;;;37.30;14.73;;;4.10;99.90;;;;;;5044407;28;20566;-56
2024/03/07 04:24:17;;;;;;;39.63;16.50;;;4.10;99.90;;;;;;5029401;28;20199;-54
2024/03/07 04:26:42;;;;;;;39.50;15.73;;;4.10;99.90;;;;;;5029475;28;20249;-56
2024/03/07 04:29:11;;;;;;;39.27;16.07;;;4.10;99.90;;;;;;5028960;28;20198;-54
2024/03/07 04:31:37;;;;;;;36.37;15.80;;;4.10;99.90;;;;;;5029408;28;20213;-54
2024/03/07 04:34:02;;;;;;;38.73;15.10;;;4.10;99.90;;;;;;5029325;28;20273;-57
2024/03/07 04:36:28;;;;;;;42.43;15.87;;;4.10;99.90;;;;;;5029222;28;20207;-56
2024/03/07 04:38:54;;;;;;;37.70;15.33;;;4.10;99.90;;;;;;5028941;28;20315;-55
2024/03/07 04:41:21;;;;;;;43.00;16.67;;;4.20;99.90;;;;;;5030039;28;20275;-56
2024/03/07 04:43:46;;;;;;;39.63;16.70;;;4.10;99.90;;;;;;5040902;28;20265;-56
2024/03/07 04:46:12;;;;;;;38.10;16.73;;;4.00;99.90;;;;;;5040836;28;20540;-55
2024/03/07 04:48:37;;;;;;;34.73;16.40;;;4.00;99.90;;;;;;5045144;28;20226;-56
2024/03/07 04:51:03;;;;;;;41.07;17.10;;;3.90;99.90;;;;;;5029546;28;20191;-56
2024/03/07 04:53:29;;;;;;;43.60;17.43;;;3.90;99.90;;;;;;5039298;28;20322;-57
2024/03/07 04:55:55;;;;;;;44.10;17.97;;;3.80;99.90;;;;;;5043348;28;20188;-56
2024/03/07 04:58:21;;;;;;;44.63;18.73;;;3.80;99.90;;;;;;5028392;28;20198;-56
2024/03/07 05:00:47;;;;;;;40.43;18.47;;;3.70;99.90;;;;;;5037466;28;20180;-59
2024/03/07 05:03:12;;;;;;;44.00;17.90;;;3.60;99.90;;;;;;5029228;28;20287;-55
2024/03/07 05:05:38;;;;;;;41.20;17.90;;;3.50;99.90;;;;;;5029123;28;20222;-57
2024/03/07 05:08:04;;;;;;;37.93;16.97;;;3.40;99.90;;;;;;5030407;28;20172;-58
2024/03/07 05:10:30;;;;;;;38.97;18.47;;;3.40;99.90;;;;;;5033007;28;20241;-59
2024/03/07 05:12:58;;;;;;;43.53;16.73;;;3.30;99.90;;;;;;5033192;28;20196;-53
2024/03/07 05:15:25;;;;;;;40.13;17.87;;;3.30;99.90;;;;;;5032979;28;20199;-53
2024/03/07 05:17:51;;;;;;;41.97;18.17;;;3.30;99.90;;;;;;5032377;28;20184;-56
2024/03/07 05:20:17;;;;;;;34.30;16.00;;;3.30;99.90;;;;;;5033153;28;20654;-54
2024/03/07 05:22:51;;;;;;;37.97;16.90;;;3.20;99.90;;;;;;5033229;28;20245;-55
2024/03/07 05:25:18;;;;;;;42.77;17.97;;;3.20;99.90;;;;;;5033090;28;20262;-57
2024/03/07 05:27:50;;;;;;;42.10;18.70;;;3.10;99.90;;;;;;5032288;28;20183;-56
2024/03/07 05:30:16;;;;;;;42.20;18.53;;;3.10;99.90;;;;;;5032664;28;20215;-56
2024/03/07 05:32:42;;;;;;;43.47;17.50;;;3.10;99.90;;;;;;5041128;28;20273;-55
2024/03/07 05:35:08;;;;;;;40.93;17.47;;;2.90;99.90;;;;;;5032778;28;20307;-52
2024/03/07 05:37:34;;;;;;;36.73;17.03;;;2.70;99.90;;;;;;5040230;28;20198;-55
2024/03/07 05:40:02;;;;;;;37.87;16.30;;;2.60;99.90;;;;;;5040628;28;20208;-54
2024/03/07 05:42:31;;;;;;;34.73;15.67;;;2.60;99.90;;;;;;5032339;28;20706;-55
2024/03/07 05:44:57;;;;;;;38.07;16.07;;;2.60;99.90;;;;;;5038378;28;20215;-54
2024/03/07 05:47:23;;;;;;;37.57;16.90;;;2.40;99.90;;;;;;5043686;28;20241;-53
2024/03/07 05:49:48;;;;;;;40.87;17.13;;;2.20;99.90;;;;;;5039537;28;20216;-58
2024/03/07 05:52:14;;;;;;;38.73;16.77;;;2.00;99.90;;;;;;5023324;28;20650;-60
2024/03/07 05:54:40;;;;;;;38.80;16.40;;;1.90;99.90;;;;;;5036212;28;20203;-53
2024/03/07 05:57:06;;;;;;;40.93;18.77;;;1.90;99.90;;;;;;5036888;28;20261;-53
2024/03/07 05:59:33;;;;;;;37.77;16.57;;;1.90;99.90;;;;;;5048317;28;20203;-56
2024/03/07 06:01:59;;;;;;;37.27;16.47;;;1.80;99.90;;;;;;5032806;28;20529;-58
2024/03/07 06:04:25;;;;;;;40.37;16.80;;;1.80;99.90;;;;;;5040474;28;20195;-53
2024/03/07 06:06:50;;;;;;;36.70;15.83;;;1.90;99.90;;;;;;5044490;28;20330;-55
2024/03/07 06:09:21;;;;;;;40.43;17.20;;;1.80;99.90;;;;;;5034031;28;20203;-52
2024/03/07 06:11:47;;;;;;;43.30;16.97;;;1.90;99.90;;;;;;5037920;28;20187;-56
2024/03/07 06:14:13;;;;;;;41.23;17.13;;;2.00;99.90;;;;;;5039681;28;20199;-54
2024/03/07 06:16:39;;;;;;;54.80;19.60;;;2.00;99.90;;;;;;5031337;28;20421;-55
2024/03/07 06:19:09;;;;;;;46.20;17.30;;;2.00;99.90;;;;;;5039213;28;20695;-53
2024/03/07 06:21:39;;;;;;;48.03;17.30;;;2.00;99.90;;;;;;5034229;28;20262;-56
2024/03/07 06:24:06;;;;;;;46.17;17.33;;;2.10;99.90;;;;;;5051086;28;20203;-53
2024/03/07 06:29:18;;;;;;;41.43;17.70;;;2.20;99.90;;;;;;5030791;28;20218;-53
2024/03/07 06:31:47;;;;;;;40.13;17.87;;;2.30;99.90;;;;;;5034781;28;20566;-59
2024/03/07 06:34:13;;;;;;;42.97;17.60;;;2.40;99.90;;;;;;5034402;28;20207;-57
2024/03/07 06:36:40;;;;;;;48.83;18.50;;;2.50;99.90;;;;;;5030391;28;20209;-56
2024/03/07 06:39:07;;;;;;;43.20;17.67;;;2.60;99.90;;;;;;5037435;28;20210;-55
2024/03/07 06:41:33;;;;;;;42.73;17.80;;;2.70;99.90;;;;;;5032642;28;20218;-53
2024/03/07 06:43:59;;;;;;;48.20;19.17;;;2.70;99.90;;;;;;5042000;28;20647;-57
2024/03/07 06:46:25;;;;;;;49.17;20.20;;;2.80;99.90;;;;;;5032324;28;20199;-54
2024/03/07 06:48:51;;;;;;;48.73;18.53;;;2.90;99.90;;;;;;5030099;28;20183;-53
2024/03/07 06:51:19;;;;;;;48.10;20.27;;;3.00;99.90;;;;;;5030604;28;20184;-52
2024/03/07 06:53:46;;;;;;;56.97;20.93;;;3.10;99.90;;;;;;5037877;28;20208;-54
2024/03/07 06:56:12;;;;;;;59.83;22.23;;;3.10;99.90;;;;;;5046531;28;20190;-57
2024/03/07 06:58:38;;;;;;;53.90;21.93;;;3.20;99.90;;;;;;5030216;28;20187;-55
2024/03/07 07:01:09;;;;;;;55.27;22.70;;;3.30;99.90;;;;;;5030510;28;20187;-52
2024/03/07 07:03:35;;;;;;;58.30;23.07;;;3.40;99.90;;;;;;5046705;28;20217;-52
2024/03/07 07:06:01;;;;;;;51.90;21.27;;;3.40;99.90;;;;;;5038422;28;20306;-52
2024/03/07 07:08:29;;;;;;;50.73;21.90;;;3.60;99.90;;;;;;5037803;28;20262;-52
2024/03/07 07:10:55;;;;;;;53.40;22.90;;;3.70;99.90;;;;;;5038102;28;20191;-54
2024/03/07 07:13:21;;;;;;;48.27;21.57;;;3.80;99.90;;;;;;5039014;28;20557;-52
2024/03/07 07:15:48;;;;;;;49.27;20.07;;;3.90;99.90;;;;;;5041705;28;20186;-52
2024/03/07 07:18:15;;;;;;;47.53;19.73;;;4.10;99.90;;;;;;5032991;28;20184;-55
2024/03/07 07:20:40;;;;;;;44.67;18.60;;;4.20;99.90;;;;;;5030341;28;20273;-54
2024/03/07 07:23:06;;;;;;;46.10;19.13;;;4.30;99.90;;;;;;5030701;28;20196;-59
2024/03/07 07:25:32;;;;;;;45.63;19.47;;;4.40;99.90;;;;;;5030909;28;20597;-54
2024/03/07 07:27:58;;;;;;;49.20;19.77;;;4.50;99.90;;;;;;5029505;28;20187;-53
2024/03/07 07:30:24;;;;;;;44.03;19.33;;;4.60;99.90;;;;;;5037420;28;20555;-53
2024/03/07 07:32:51;;;;;;;48.10;19.27;;;4.70;99.90;;;;;;5037957;28;20187;-53
2024/03/07 07:35:17;;;;;;;43.90;18.67;;;4.80;99.90;;;;;;5029484;28;20184;-52
2024/03/07 07:37:44;;;;;;;42.67;20.33;;;5.00;99.90;;;;;;5033207;28;20183;-56
2024/03/07 07:40:18;;;;;;;50.97;20.23;;;5.10;99.90;;;;;;5041740;28;20207;-55
2024/03/07 07:42:46;;;;;;;39.43;17.70;;;5.20;99.90;;;;;;5041506;28;20701;-50
2024/03/07 07:45:12;;;;;;;49.00;18.40;;;5.30;99.90;;;;;;5041248;28;20655;-55
2024/03/07 07:47:49;;;;;;;40.80;18.23;;;5.50;99.90;;;;;;5037190;28;20175;-53
2024/03/07 07:50:20;;;;;;;40.37;18.00;;;5.60;99.90;;;;;;5029318;28;20266;-56
2024/03/07 07:52:50;;;;;;;46.83;18.00;;;5.60;99.90;;;;;;5029450;28;20184;-52
2024/03/07 07:55:17;;;;;;;45.57;18.30;;;5.60;99.90;;;;;;5029148;28;20187;-55
2024/03/07 07:57:54;;;;;;;42.57;18.97;;;5.70;99.90;;;;;;5036660;28;20678;-52
2024/03/07 08:00:24;;;;;;;41.20;18.03;;;5.80;99.90;;;;;;5029120;28;20226;-53
2024/03/07 08:03:06;;;;;;;42.87;17.87;;;5.90;99.90;;;;;;5037454;28;20179;-51
2024/03/07 08:05:33;;;;;;;37.80;17.30;;;6.00;99.90;;;;;;5039534;28;20557;-55
2024/03/07 08:08:04;;;;;;;46.30;18.53;;;6.00;99.90;;;;;;5040220;28;20556;-56
2024/03/07 08:10:30;;;;;;;45.60;18.63;;;6.00;99.90;;;;;;5040992;28;20201;-58
2024/03/07 08:13:00;;;;;;;40.30;17.27;;;5.90;99.90;;;;;;5048976;28;20681;-51
2024/03/07 08:15:27;;;;;;;45.37;18.17;;;5.90;99.90;;;;;;5039226;28;20204;-54
2024/03/07 08:17:55;;;;;;;41.47;17.13;;;5.70;99.90;;;;;;5028718;28;20172;-56
2024/03/07 08:20:22;;;;;;;71.93;29.80;;;5.70;99.90;;;;;;5037048;28;20217;-54
2024/03/07 08:22:51;;;;;;;205.43;81.90;;;5.60;99.90;;;;;;5033016;28;20194;-55
2024/03/07 08:25:17;;;;;;;60.33;25.43;;;5.60;99.90;;;;;;5031969;28;20179;-57
2024/03/07 08:27:47;;;;;;;71.50;37.03;;;5.60;99.90;;;;;;5036883;28;20488;-54
2024/03/07 08:30:14;;;;;;;58.13;27.80;;;5.50;99.90;;;;;;5045512;28;20202;-53
2024/03/07 08:32:40;;;;;;;56.60;27.07;;;5.60;99.90;;;;;;5037402;28;20206;-55
2024/03/07 08:35:09;;;;;;;40.13;17.17;;;5.60;99.90;;;;;;5037280;28;20215;-56
2024/03/07 08:37:39;;;;;;;40.33;16.73;;;5.60;99.90;;;;;;5030740;28;20184;-51
2024/03/07 08:40:09;;;;;;;46.67;19.87;;;5.50;99.90;;;;;;5033836;28;20207;-56
2024/03/07 08:42:36;;;;;;;46.87;16.33;;;5.50;99.90;;;;;;5029869;28;20192;-56
2024/03/07 08:45:06;;;;;;;45.23;17.47;;;5.50;99.90;;;;;;5041193;28;20191;-56
2024/03/07 08:47:32;;;;;;;39.93;17.67;;;5.50;99.90;;;;;;5042477;28;20189;-57
2024/03/07 08:49:59;;;;;;;40.63;18.40;;;5.60;99.90;;;;;;5044513;28;20183;-52
2024/03/07 08:52:25;;;;;;;38.77;16.90;;;5.70;99.90;;;;;;5043007;28;20659;-55
2024/03/07 08:54:50;;;;;;;40.50;16.70;;;5.70;99.90;;;;;;5032677;28;20294;-56
2024/03/07 08:57:19;;;;;;;45.30;18.20;;;5.70;99.90;;;;;;5022585;28;20648;-51
2024/03/07 08:59:45;;;;;;;38.20;15.97;;;5.80;99.90;;;;;;5031900;28;20214;-53
2024/03/07 09:02:13;;;;;;;35.50;15.57;;;5.90;99.90;;;;;;5040333;28;20180;-55
2024/03/07 09:04:39;;;;;;;42.00;16.40;;;6.00;99.90;;;;;;5035100;28;20252;-57
2024/03/07 09:07:06;;;;;;;39.67;15.37;;;6.10;99.90;;;;;;5037343;28;20183;-56
2024/03/07 09:09:34;;;;;;;42.90;17.80;;;6.20;99.90;;;;;;5031200;28;20252;-56
2024/03/07 09:12:03;;;;;;;38.73;16.27;;;6.30;99.90;;;;;;5032147;28;20585;-57
2024/03/07 09:14:29;;;;;;;41.37;16.50;;;6.30;99.90;;;;;;5048745;28;20217;-56
2024/03/07 09:16:55;;;;;;;41.47;16.37;;;6.40;99.90;;;;;;5045771;28;20257;-55
2024/03/07 09:19:23;;;;;;;39.03;16.37;;;6.40;99.90;;;;;;5034839;28;20694;-54
2024/03/07 09:21:51;;;;;;;40.97;16.10;;;6.50;99.90;;;;;;5039538;28;20192;-55
2024/03/07 09:24:16;;;;;;;40.47;16.90;;;6.60;99.90;;;;;;5040228;28;20203;-54
2024/03/07 09:26:42;;;;;;;34.13;15.50;;;6.70;99.90;;;;;;5032366;28;20233;-56
2024/03/07 09:29:07;;;;;;;37.73;15.93;;;6.60;99.90;;;;;;5031667;28;20183;-55
2024/03/07 09:31:33;;;;;;;37.57;15.03;;;6.70;99.90;;;;;;5034367;28;20256;-53
2024/03/07 09:33:59;;;;;;;34.13;15.13;;;6.70;99.90;;;;;;5043495;28;20442;-56
2024/03/07 09:36:25;;;;;;;39.43;14.87;;;6.80;99.90;;;;;;5050678;28;20191;-55
2024/03/07 09:38:51;;;;;;;35.37;15.80;;;7.00;99.90;;;;;;5039836;28;20207;-55
2024/03/07 09:41:17;;;;;;;38.13;16.60;;;7.10;99.90;;;;;;5031788;28;20184;-55
2024/03/07 09:43:54;;;;;;;36.07;14.93;;;7.10;99.90;;;;;;5031703;28;20227;-55
2024/03/07 09:46:22;;;;;;;39.70;15.50;;;7.10;99.90;;;;;;5039740;28;20219;-52
2024/03/07 09:48:53;;;;;;;34.50;14.47;;;7.20;99.90;;;;;;5031469;28;20194;-56
2024/03/07 09:51:20;;;;;;;36.70;13.97;;;7.30;99.90;;;;;;5031807;28;20278;-57
2024/03/07 09:53:48;;;;;;;39.30;15.27;;;7.40;99.90;;;;;;5047061;28;20211;-55
2024/03/07 09:56:19;;;;;;;36.87;14.97;;;7.40;99.90;;;;;;5038811;28;20207;-54
2024/03/07 09:58:50;;;;;;;41.60;18.03;;;7.40;99.90;;;;;;5042740;28;20201;-57
2024/03/07 10:01:26;;;;;;;38.50;15.83;;;7.30;99.90;;;;;;5034990;28;20189;-54
2024/03/07 10:03:58;;;;;;;37.57;15.60;;;7.40;99.90;;;;;;5031395;28;20292;-56
2024/03/07 10:06:24;;;;;;;36.43;15.60;;;7.40;99.90;;;;;;5039271;28;20194;-52
2024/03/07 10:08:50;;;;;;;33.47;15.40;;;7.30;99.90;;;;;;5030727;28;20187;-54
2024/03/07 10:11:15;;;;;;;42.53;16.40;;;7.40;99.90;;;;;;5039418;28;20604;-52
2024/03/07 10:13:41;;;;;;;34.67;15.33;;;7.50;99.90;;;;;;5034429;28;20241;-53
2024/03/07 10:16:07;;;;;;;35.20;15.53;;;7.50;99.90;;;;;;5042897;28;20207;-56
2024/03/07 10:18:41;;;;;;;33.53;15.13;;;7.60;99.90;;;;;;5040140;28;20664;-51
2024/03/07 10:21:07;;;;;;;35.17;14.77;;;7.60;99.90;;;;;;5031047;28;20652;-54
2024/03/07 10:23:34;;;;;;;34.50;14.53;;;7.70;99.90;;;;;;5030790;28;20214;-52
2024/03/07 10:26:00;;;;;;;35.03;14.20;;;7.80;99.90;;;;;;5030983;28;20184;-51
2024/03/07 10:28:30;;;;;;;33.73;14.60;;;7.80;99.90;;;;;;5038574;28;20192;-52
2024/03/07 10:30:56;;;;;;;36.40;15.03;;;7.90;99.90;;;;;;5031159;28;20180;-54
2024/03/07 10:33:27;;;;;;;32.23;13.60;;;7.80;99.90;;;;;;5039708;28;20240;-52
2024/03/07 10:35:53;;;;;;;35.10;15.43;;;7.90;99.90;;;;;;5050737;28;20552;-55
2024/03/07 10:38:18;;;;;;;36.30;13.83;;;8.00;99.90;;;;;;5033393;28;20192;-54
2024/03/07 10:40:47;;;;;;;31.03;14.63;;;8.00;99.90;;;;;;5034259;28;20658;-56
2024/03/07 10:43:17;;;;;;;38.10;16.07;;;8.10;99.90;;;;;;5042126;28;20206;-54
2024/03/07 10:45:47;;;;;;;34.30;13.77;;;8.20;99.90;;;;;;5039095;28;20188;-54
2024/03/07 10:48:16;;;;;;;32.67;14.10;;;8.10;99.90;;;;;;5037576;28;20191;-57
2024/03/07 10:51:06;;;;;;;31.77;13.80;;;8.10;99.90;;;;;;5039048;28;20647;-56
2024/03/07 10:53:59;;;;;;;34.57;15.00;;;8.20;99.90;;;;;;5020459;28;20199;-55
2024/03/07 10:56:57;;;;;;;32.63;14.47;;;8.30;99.90;;;;;;5036103;28;20204;-54
2024/03/07 10:59:27;;;;;;;29.23;13.70;;;8.20;99.90;;;;;;5029685;28;20199;-54
2024/03/07 11:01:57;;;;;;;31.80;13.87;;;8.20;99.90;;;;;;5038965;28;20184;-51
2024/03/07 11:04:26;;;;;;;33.57;14.40;;;8.20;99.90;;;;;;5038141;28;20349;-53
2024/03/07 11:06:52;;;;;;;30.57;14.27;;;8.10;99.90;;;;;;5033999;28;20183;-54
2024/03/07 11:09:23;;;;;;;28.73;13.37;;;8.20;99.90;;;;;;5033130;28;20202;-54
2024/03/07 11:11:49;;;;;;;28.03;13.33;;;8.00;99.90;;;;;;5045937;28;20261;-54
2024/03/07 11:14:16;;;;;;;25.43;12.83;;;8.00;99.90;;;;;;5030067;28;20680;-51
2024/03/07 11:16:43;;;;;;;28.27;13.10;;;7.90;99.90;;;;;;5038049;28;20632;-58
2024/03/07 11:19:28;;;;;;;27.47;12.57;;;7.90;99.90;;;;;;5037821;28;20238;-53
2024/03/07 11:22:00;;;;;;;29.80;13.53;;;7.90;99.90;;;;;;5038316;28;20172;-55
2024/03/07 11:24:32;;;;;;;28.97;12.80;;;7.90;99.90;;;;;;5037859;28;20241;-52
2024/03/07 11:26:58;;;;;;;30.50;12.53;;;7.90;99.90;;;;;;5043594;28;20189;-57
2024/03/07 11:29:46;;;;;;;25.30;12.07;;;7.90;99.90;;;;;;5032004;28;20210;-57
2024/03/07 11:32:16;;;;;;;29.23;12.60;;;7.90;99.90;;;;;;5029893;28;20215;-55
2024/03/07 11:34:46;;;;;;;23.47;11.43;;;7.90;99.90;;;;;;5029474;28;20210;-53
2024/03/07 11:37:17;;;;;;;27.03;11.63;;;7.90;99.90;;;;;;5045188;28;20257;-55
2024/03/07 11:39:47;;;;;;;23.40;11.50;;;7.90;99.90;;;;;;5048882;28;20326;-55
2024/03/07 11:42:22;;;;;;;23.93;11.80;;;7.90;99.90;;;;;;5042070;28;20188;-55
2024/03/07 11:44:51;;;;;;;28.23;12.20;;;8.00;99.90;;;;;;5029407;28;20211;-54
2024/03/07 11:47:17;;;;;;;23.60;11.43;;;8.00;99.90;;;;;;5029319;28;20267;-58
2024/03/07 11:49:43;;;;;;;24.03;11.00;;;7.90;99.90;;;;;;5028236;28;20207;-54
2024/03/07 11:52:12;;;;;;;21.07;11.47;;;7.90;99.90;;;;;;5036456;28;20198;-57
2024/03/07 11:54:46;;;;;;;24.40;10.63;;;7.90;99.90;;;;;;5038240;28;20215;-55
2024/03/07 11:57:26;;;;;;;27.00;11.37;;;8.10;99.90;;;;;;5037974;28;20180;-54
2024/03/07 11:59:52;;;;;;;23.53;11.00;;;8.20;99.90;;;;;;5029088;28;20253;-56
2024/03/07 12:02:21;;;;;;;22.40;10.70;;;8.30;99.90;;;;;;5029323;28;20660;-51
2024/03/07 12:04:48;;;;;;;19.30;10.10;;;8.20;99.90;;;;;;5029361;28;20265;-56
2024/03/07 12:07:17;;;;;;;23.20;10.57;;;8.20;99.90;;;;;;5029316;28;20554;-56
2024/03/07 12:09:45;;;;;;;22.00;10.47;;;8.40;99.90;;;;;;5039992;28;20191;-51
2024/03/07 12:12:12;;;;;;;22.63;10.80;;;8.50;99.90;;;;;;5040785;28;20663;-57
2024/03/07 12:14:38;;;;;;;22.53;10.40;;;8.70;99.90;;;;;;5038134;28;20261;-53
2024/03/07 12:17:05;;;;;;;28.67;10.17;;;8.70;99.90;;;;;;5035004;28;20213;-52
2024/03/07 12:19:35;;;;;;;21.37;10.17;;;8.70;99.90;;;;;;5030503;28;20212;-53
2024/03/07 12:22:03;;;;;;;22.90;10.57;;;8.70;99.90;;;;;;5028960;28;20191;-51
2024/03/07 12:24:30;;;;;;;25.33;12.73;;;8.60;99.90;;;;;;5038106;28;20203;-56
2024/03/07 12:27:25;;;;;;;21.67;10.47;;;8.60;99.90;;;;;;5035310;28;20278;-52
2024/03/07 12:29:52;;;;;;;20.17;9.10;;;8.70;99.90;;;;;;5024209;28;20563;-54
2024/03/07 12:32:18;;;;;;;21.13;9.73;;;8.70;99.90;;;;;;5028716;28;20576;-56
2024/03/07 12:34:46;;;;;;;19.30;9.47;;;8.70;99.90;;;;;;5036971;28;20602;-51
2024/03/07 12:37:16;;;;;;;17.73;9.23;;;8.70;99.90;;;;;;5028697;28;20270;-52
2024/03/07 12:39:58;;;;;;;18.50;9.17;;;8.80;99.90;;;;;;5039477;28;20681;-51
2024/03/07 12:42:24;;;;;;;18.03;8.57;;;9.10;99.90;;;;;;5048755;28;20194;-51
2024/03/07 12:44:50;;;;;;;16.63;8.23;;;9.30;99.90;;;;;;5040204;28;20222;-52